sensor_id;sensor_type;location;lat;lon;timestamp;P1;durP1;ratioP1;P2;durP2;ratioP2
72273;SDS011;60208;48.692;8.948;2023-11-19T00:00:19;11.18;;;6.35;;
72273;SDS011;60208;48.692;8.948;2023-11-19T00:02:44;9.27;;;5.38;;
72273;SDS011;60208;48.692;8.948;2023-11-19T00:05:10;4.88;;;3.85;;
72273;SDS011;60208;48.692;8.948;2023-11-19T00:07:39;10.70;;;4.55;;
72273;SDS011;60208;48.692;8.948;2023-11-19T00:10:08;20.05;;;4.60;;
72273;SDS011;60208;48.692;8.948;2023-11-19T00:12:36;16.40;;;4.70;;
72273;SDS011;60208;48.692;8.948;2023-11-19T00:15:02;24.10;;;5.38;;
72273;SDS011;60208;48.692;8.948;2023-11-19T00:17:28;10.18;;;5.60;;
72273;SDS011;60208;48.692;8.948;2023-11-19T00:19:54;14.05;;;6.10;;
72273;SDS011;60208;48.692;8.948;2023-11-19T00:22:19;10.30;;;5.47;;
72273;SDS011;60208;48.692;8.948;2023-11-19T00:24:46;7.68;;;4.70;;
72273;SDS011;60208;48.692;8.948;2023-11-19T00:27:11;7.43;;;5.20;;
72273;SDS011;60208;48.692;8.948;2023-11-19T00:29:37;9.00;;;5.15;;
72273;SDS011;60208;48.692;8.948;2023-11-19T00:32:02;5.65;;;4.25;;
72273;SDS011;60208;48.692;8.948;2023-11-19T00:34:30;8.38;;;4.30;;
72273;SDS011;60208;48.692;8.948;2023-11-19T00:36:56;9.07;;;4.47;;
72273;SDS011;60208;48.692;8.948;2023-11-19T00:39:21;8.30;;;3.55;;
72273;SDS011;60208;48.692;8.948;2023-11-19T00:41:47;6.47;;;3.55;;
72273;SDS011;60208;48.692;8.948;2023-11-19T00:44:13;7.57;;;3.80;;
72273;SDS011;60208;48.692;8.948;2023-11-19T00:46:38;6.00;;;4.20;;
72273;SDS011;60208;48.692;8.948;2023-11-19T00:49:04;7.32;;;4.57;;
72273;SDS011;60208;48.692;8.948;2023-11-19T00:51:30;7.90;;;4.80;;
72273;SDS011;60208;48.692;8.948;2023-11-19T00:53:56;6.45;;;4.97;;
72273;SDS011;60208;48.692;8.948;2023-11-19T00:56:26;7.55;;;4.10;;
72273;SDS011;60208;48.692;8.948;2023-11-19T00:58:51;5.75;;;4.38;;
72273;SDS011;60208;48.692;8.948;2023-11-19T01:01:17;6.55;;;4.25;;
72273;SDS011;60208;48.692;8.948;2023-11-19T01:03:42;6.85;;;3.47;;
72273;SDS011;60208;48.692;8.948;2023-11-19T01:06:08;5.43;;;3.30;;
72273;SDS011;60208;48.692;8.948;2023-11-19T01:08:33;4.18;;;2.80;;
72273;SDS011;60208;48.692;8.948;2023-11-19T01:11:00;4.47;;;3.08;;
72273;SDS011;60208;48.692;8.948;2023-11-19T01:13:27;3.30;;;2.90;;
72273;SDS011;60208;48.692;8.948;2023-11-19T01:15:53;4.15;;;3.00;;
72273;SDS011;60208;48.692;8.948;2023-11-19T01:18:18;3.53;;;2.70;;
72273;SDS011;60208;48.692;8.948;2023-11-19T01:20:44;3.92;;;2.80;;
72273;SDS011;60208;48.692;8.948;2023-11-19T01:23:09;6.75;;;2.60;;
72273;SDS011;60208;48.692;8.948;2023-11-19T01:25:35;3.95;;;2.60;;
72273;SDS011;60208;48.692;8.948;2023-11-19T01:28:03;3.88;;;2.50;;
72273;SDS011;60208;48.692;8.948;2023-11-19T01:30:29;2.75;;;2.22;;
72273;SDS011;60208;48.692;8.948;2023-11-19T01:32:55;8.13;;;2.97;;
72273;SDS011;60208;48.692;8.948;2023-11-19T01:35:21;6.03;;;3.40;;
72273;SDS011;60208;48.692;8.948;2023-11-19T01:37:49;3.67;;;2.90;;
72273;SDS011;60208;48.692;8.948;2023-11-19T01:40:19;5.97;;;2.83;;
72273;SDS011;60208;48.692;8.948;2023-11-19T01:42:45;4.05;;;2.72;;
72273;SDS011;60208;48.692;8.948;2023-11-19T01:45:10;3.78;;;2.65;;
72273;SDS011;60208;48.692;8.948;2023-11-19T01:47:48;5.90;;;2.92;;
72273;SDS011;60208;48.692;8.948;2023-11-19T01:50:14;7.50;;;2.35;;
72273;SDS011;60208;48.692;8.948;2023-11-19T01:52:39;4.40;;;2.70;;
72273;SDS011;60208;48.692;8.948;2023-11-19T01:55:05;3.97;;;2.38;;
72273;SDS011;60208;48.692;8.948;2023-11-19T01:57:32;3.75;;;2.15;;
72273;SDS011;60208;48.692;8.948;2023-11-19T01:59:58;4.53;;;1.98;;
72273;SDS011;60208;48.692;8.948;2023-11-19T02:02:23;2.63;;;1.90;;
72273;SDS011;60208;48.692;8.948;2023-11-19T02:04:49;4.07;;;1.98;;
72273;SDS011;60208;48.692;8.948;2023-11-19T02:07:15;4.00;;;2.47;;
72273;SDS011;60208;48.692;8.948;2023-11-19T02:09:42;4.05;;;1.70;;
72273;SDS011;60208;48.692;8.948;2023-11-19T02:12:09;4.50;;;2.10;;
72273;SDS011;60208;48.692;8.948;2023-11-19T02:14:36;1.55;;;1.25;;
72273;SDS011;60208;48.692;8.948;2023-11-19T02:17:02;1.85;;;1.10;;
72273;SDS011;60208;48.692;8.948;2023-11-19T02:19:27;6.30;;;0.70;;
72273;SDS011;60208;48.692;8.948;2023-11-19T02:21:54;2.05;;;0.60;;
72273;SDS011;60208;48.692;8.948;2023-11-19T02:24:20;0.68;;;0.30;;
72273;SDS011;60208;48.692;8.948;2023-11-19T02:29:33;2.55;;;0.40;;
72273;SDS011;60208;48.692;8.948;2023-11-19T02:32:00;0.40;;;0.30;;
72273;SDS011;60208;48.692;8.948;2023-11-19T02:34:28;2.75;;;0.30;;
72273;SDS011;60208;48.692;8.948;2023-11-19T02:36:54;0.90;;;0.30;;
72273;SDS011;60208;48.692;8.948;2023-11-19T02:39:20;0.30;;;0.20;;
72273;SDS011;60208;48.692;8.948;2023-11-19T02:41:47;1.38;;;0.30;;
72273;SDS011;60208;48.692;8.948;2023-11-19T02:44:15;1.75;;;0.25;;
72273;SDS011;60208;48.692;8.948;2023-11-19T02:46:41;6.28;;;0.45;;
72273;SDS011;60208;48.692;8.948;2023-11-19T02:49:07;1.27;;;0.32;;
72273;SDS011;60208;48.692;8.948;2023-11-19T02:51:33;0.52;;;0.30;;
72273;SDS011;60208;48.692;8.948;2023-11-19T02:53:59;2.72;;;0.40;;
72273;SDS011;60208;48.692;8.948;2023-11-19T02:56:25;1.58;;;0.30;;
72273;SDS011;60208;48.692;8.948;2023-11-19T02:58:51;0.30;;;0.30;;
72273;SDS011;60208;48.692;8.948;2023-11-19T03:01:26;1.13;;;0.30;;
72273;SDS011;60208;48.692;8.948;2023-11-19T03:03:58;0.73;;;0.30;;
72273;SDS011;60208;48.692;8.948;2023-11-19T03:06:24;0.82;;;0.40;;
72273;SDS011;60208;48.692;8.948;2023-11-19T03:08:49;0.30;;;0.30;;
72273;SDS011;60208;48.692;8.948;2023-11-19T03:11:15;2.13;;;0.40;;
72273;SDS011;60208;48.692;8.948;2023-11-19T03:13:40;0.40;;;0.30;;
72273;SDS011;60208;48.692;8.948;2023-11-19T03:16:06;0.75;;;0.30;;
72273;SDS011;60208;48.692;8.948;2023-11-19T03:18:32;1.85;;;0.30;;
72273;SDS011;60208;48.692;8.948;2023-11-19T03:20:58;1.55;;;0.30;;
72273;SDS011;60208;48.692;8.948;2023-11-19T03:23:24;2.70;;;0.30;;
72273;SDS011;60208;48.692;8.948;2023-11-19T03:25:52;0.52;;;0.30;;
72273;SDS011;60208;48.692;8.948;2023-11-19T03:28:18;0.40;;;0.40;;
72273;SDS011;60208;48.692;8.948;2023-11-19T03:30:44;2.83;;;0.38;;
72273;SDS011;60208;48.692;8.948;2023-11-19T03:33:09;6.88;;;0.47;;
72273;SDS011;60208;48.692;8.948;2023-11-19T03:35:34;3.85;;;0.40;;
72273;SDS011;60208;48.692;8.948;2023-11-19T03:38:00;0.85;;;0.40;;
72273;SDS011;60208;48.692;8.948;2023-11-19T03:40:26;0.20;;;0.20;;
72273;SDS011;60208;48.692;8.948;2023-11-19T03:42:55;1.55;;;0.20;;
72273;SDS011;60208;48.692;8.948;2023-11-19T03:45:23;0.40;;;0.30;;
72273;SDS011;60208;48.692;8.948;2023-11-19T03:47:49;0.32;;;0.30;;
72273;SDS011;60208;48.692;8.948;2023-11-19T03:50:15;0.50;;;0.20;;
72273;SDS011;60208;48.692;8.948;2023-11-19T03:52:40;0.20;;;0.20;;
72273;SDS011;60208;48.692;8.948;2023-11-19T03:55:06;0.20;;;0.20;;
72273;SDS011;60208;48.692;8.948;2023-11-19T03:57:33;0.32;;;0.15;;
72273;SDS011;60208;48.692;8.948;2023-11-19T03:59:59;0.63;;;0.30;;
72273;SDS011;60208;48.692;8.948;2023-11-19T04:02:32;0.68;;;0.20;;
72273;SDS011;60208;48.692;8.948;2023-11-19T04:04:58;1.52;;;0.20;;
72273;SDS011;60208;48.692;8.948;2023-11-19T04:07:23;0.25;;;0.20;;
72273;SDS011;60208;48.692;8.948;2023-11-19T04:09:49;1.23;;;0.20;;
72273;SDS011;60208;48.692;8.948;2023-11-19T04:12:14;0.20;;;0.20;;
72273;SDS011;60208;48.692;8.948;2023-11-19T04:14:40;2.60;;;0.20;;
72273;SDS011;60208;48.692;8.948;2023-11-19T04:17:05;0.28;;;0.17;;
72273;SDS011;60208;48.692;8.948;2023-11-19T04:19:31;1.73;;;0.22;;
72273;SDS011;60208;48.692;8.948;2023-11-19T04:21:57;0.57;;;0.15;;
72273;SDS011;60208;48.692;8.948;2023-11-19T04:24:23;0.20;;;0.20;;
72273;SDS011;60208;48.692;8.948;2023-11-19T04:26:49;1.75;;;0.30;;
72273;SDS011;60208;48.692;8.948;2023-11-19T04:29:15;1.58;;;0.30;;
72273;SDS011;60208;48.692;8.948;2023-11-19T04:31:44;0.20;;;0.20;;
72273;SDS011;60208;48.692;8.948;2023-11-19T04:34:10;0.30;;;0.30;;
72273;SDS011;60208;48.692;8.948;2023-11-19T04:36:36;0.28;;;0.28;;
72273;SDS011;60208;48.692;8.948;2023-11-19T04:39:02;0.30;;;0.30;;
72273;SDS011;60208;48.692;8.948;2023-11-19T04:41:33;0.17;;;0.17;;
72273;SDS011;60208;48.692;8.948;2023-11-19T04:43:59;0.95;;;0.22;;
72273;SDS011;60208;48.692;8.948;2023-11-19T04:46:24;0.25;;;0.25;;
72273;SDS011;60208;48.692;8.948;2023-11-19T04:48:49;0.30;;;0.30;;
72273;SDS011;60208;48.692;8.948;2023-11-19T04:51:15;0.20;;;0.20;;
72273;SDS011;60208;48.692;8.948;2023-11-19T04:53:41;2.05;;;0.30;;
72273;SDS011;60208;48.692;8.948;2023-11-19T04:56:07;0.40;;;0.30;;
72273;SDS011;60208;48.692;8.948;2023-11-19T04:58:34;0.20;;;0.20;;
72273;SDS011;60208;48.692;8.948;2023-11-19T05:01:00;0.45;;;0.28;;
72273;SDS011;60208;48.692;8.948;2023-11-19T05:03:26;0.28;;;0.15;;
72273;SDS011;60208;48.692;8.948;2023-11-19T05:05:52;0.20;;;0.20;;
72273;SDS011;60208;48.692;8.948;2023-11-19T05:08:17;0.30;;;0.30;;
72273;SDS011;60208;48.692;8.948;2023-11-19T05:10:44;0.30;;;0.30;;
72273;SDS011;60208;48.692;8.948;2023-11-19T05:13:09;0.20;;;0.20;;
72273;SDS011;60208;48.692;8.948;2023-11-19T05:15:35;0.20;;;0.20;;
72273;SDS011;60208;48.692;8.948;2023-11-19T05:18:00;0.30;;;0.30;;
72273;SDS011;60208;48.692;8.948;2023-11-19T05:20:26;0.30;;;0.30;;
72273;SDS011;60208;48.692;8.948;2023-11-19T05:22:51;0.40;;;0.30;;
72273;SDS011;60208;48.692;8.948;2023-11-19T05:25:18;0.20;;;0.20;;
72273;SDS011;60208;48.692;8.948;2023-11-19T05:27:45;0.20;;;0.20;;
72273;SDS011;60208;48.692;8.948;2023-11-19T05:30:10;0.30;;;0.30;;
72273;SDS011;60208;48.692;8.948;2023-11-19T05:32:36;0.20;;;0.20;;
72273;SDS011;60208;48.692;8.948;2023-11-19T05:35:01;0.95;;;0.20;;
72273;SDS011;60208;48.692;8.948;2023-11-19T05:37:27;0.90;;;0.20;;
72273;SDS011;60208;48.692;8.948;2023-11-19T05:39:53;0.47;;;0.25;;
72273;SDS011;60208;48.692;8.948;2023-11-19T05:42:18;0.30;;;0.30;;
72273;SDS011;60208;48.692;8.948;2023-11-19T05:44:43;0.30;;;0.20;;
72273;SDS011;60208;48.692;8.948;2023-11-19T05:47:09;0.20;;;0.20;;
72273;SDS011;60208;48.692;8.948;2023-11-19T05:49:34;0.20;;;0.20;;
72273;SDS011;60208;48.692;8.948;2023-11-19T05:52:00;0.25;;;0.25;;
72273;SDS011;60208;48.692;8.948;2023-11-19T05:54:28;0.30;;;0.20;;
72273;SDS011;60208;48.692;8.948;2023-11-19T05:56:53;0.30;;;0.30;;
72273;SDS011;60208;48.692;8.948;2023-11-19T05:59:19;0.30;;;0.30;;
72273;SDS011;60208;48.692;8.948;2023-11-19T06:01:45;0.43;;;0.40;;
72273;SDS011;60208;48.692;8.948;2023-11-19T06:04:10;0.40;;;0.40;;
72273;SDS011;60208;48.692;8.948;2023-11-19T06:06:36;1.35;;;0.40;;
72273;SDS011;60208;48.692;8.948;2023-11-19T06:09:02;0.68;;;0.43;;
72273;SDS011;60208;48.692;8.948;2023-11-19T06:11:28;0.50;;;0.50;;
72273;SDS011;60208;48.692;8.948;2023-11-19T06:13:53;1.00;;;0.60;;
72273;SDS011;60208;48.692;8.948;2023-11-19T06:16:19;1.42;;;0.50;;
72273;SDS011;60208;48.692;8.948;2023-11-19T06:18:44;1.70;;;0.60;;
72273;SDS011;60208;48.692;8.948;2023-11-19T06:21:10;1.67;;;0.60;;
72273;SDS011;60208;48.692;8.948;2023-11-19T06:23:36;1.23;;;0.50;;
72273;SDS011;60208;48.692;8.948;2023-11-19T06:26:02;1.17;;;0.50;;
72273;SDS011;60208;48.692;8.948;2023-11-19T06:28:27;2.42;;;0.40;;
72273;SDS011;60208;48.692;8.948;2023-11-19T06:30:52;0.82;;;0.50;;
72273;SDS011;60208;48.692;8.948;2023-11-19T06:33:18;0.70;;;0.50;;
72273;SDS011;60208;48.692;8.948;2023-11-19T06:35:43;0.40;;;0.40;;
72273;SDS011;60208;48.692;8.948;2023-11-19T06:38:09;0.60;;;0.60;;
72273;SDS011;60208;48.692;8.948;2023-11-19T06:40:34;0.40;;;0.40;;
72273;SDS011;60208;48.692;8.948;2023-11-19T06:43:03;2.00;;;0.50;;
72273;SDS011;60208;48.692;8.948;2023-11-19T06:45:29;0.40;;;0.40;;
72273;SDS011;60208;48.692;8.948;2023-11-19T06:47:55;0.50;;;0.50;;
72273;SDS011;60208;48.692;8.948;2023-11-19T06:50:20;1.55;;;0.63;;
72273;SDS011;60208;48.692;8.948;2023-11-19T06:52:46;1.17;;;0.52;;
72273;SDS011;60208;48.692;8.948;2023-11-19T06:55:12;1.08;;;0.70;;
72273;SDS011;60208;48.692;8.948;2023-11-19T06:57:37;0.70;;;0.70;;
72273;SDS011;60208;48.692;8.948;2023-11-19T07:00:03;1.65;;;0.75;;
72273;SDS011;60208;48.692;8.948;2023-11-19T07:02:31;1.60;;;1.00;;
72273;SDS011;60208;48.692;8.948;2023-11-19T07:04:56;1.30;;;0.80;;
72273;SDS011;60208;48.692;8.948;2023-11-19T07:07:22;1.02;;;0.70;;
72273;SDS011;60208;48.692;8.948;2023-11-19T07:09:47;1.98;;;0.93;;
72273;SDS011;60208;48.692;8.948;2023-11-19T07:12:13;0.60;;;0.60;;
72273;SDS011;60208;48.692;8.948;2023-11-19T07:14:39;9.70;;;2.08;;
72273;SDS011;60208;48.692;8.948;2023-11-19T07:17:05;0.60;;;0.60;;
72273;SDS011;60208;48.692;8.948;2023-11-19T07:19:31;1.20;;;1.00;;
72273;SDS011;60208;48.692;8.948;2023-11-19T07:21:56;1.00;;;0.90;;
72273;SDS011;60208;48.692;8.948;2023-11-19T07:24:22;2.25;;;0.65;;
72273;SDS011;60208;48.692;8.948;2023-11-19T07:26:47;1.08;;;0.50;;
72273;SDS011;60208;48.692;8.948;2023-11-19T07:29:13;0.50;;;0.50;;
72273;SDS011;60208;48.692;8.948;2023-11-19T07:31:42;1.45;;;0.60;;
72273;SDS011;60208;48.692;8.948;2023-11-19T07:34:09;1.40;;;0.60;;
72273;SDS011;60208;48.692;8.948;2023-11-19T07:36:36;0.40;;;0.40;;
72273;SDS011;60208;48.692;8.948;2023-11-19T07:39:03;1.13;;;0.57;;
72273;SDS011;60208;48.692;8.948;2023-11-19T07:41:29;0.50;;;0.50;;
72273;SDS011;60208;48.692;8.948;2023-11-19T07:43:55;1.90;;;0.60;;
72273;SDS011;60208;48.692;8.948;2023-11-19T07:46:21;0.70;;;0.50;;
72273;SDS011;60208;48.692;8.948;2023-11-19T07:48:46;1.13;;;0.60;;
72273;SDS011;60208;48.692;8.948;2023-11-19T07:51:15;0.52;;;0.50;;
72273;SDS011;60208;48.692;8.948;2023-11-19T07:53:40;0.65;;;0.65;;
72273;SDS011;60208;48.692;8.948;2023-11-19T07:56:06;2.15;;;0.63;;
72273;SDS011;60208;48.692;8.948;2023-11-19T07:58:33;0.77;;;0.60;;
72273;SDS011;60208;48.692;8.948;2023-11-19T08:00:59;0.55;;;0.55;;
72273;SDS011;60208;48.692;8.948;2023-11-19T08:03:26;2.25;;;0.68;;
72273;SDS011;60208;48.692;8.948;2023-11-19T08:05:54;0.70;;;0.70;;
72273;SDS011;60208;48.692;8.948;2023-11-19T08:08:21;1.20;;;0.70;;
72273;SDS011;60208;48.692;8.948;2023-11-19T08:10:46;0.60;;;0.60;;
72273;SDS011;60208;48.692;8.948;2023-11-19T08:13:12;1.10;;;0.50;;
72273;SDS011;60208;48.692;8.948;2023-11-19T08:15:38;1.90;;;0.70;;
72273;SDS011;60208;48.692;8.948;2023-11-19T08:18:03;0.75;;;0.70;;
72273;SDS011;60208;48.692;8.948;2023-11-19T08:20:30;1.52;;;0.80;;
72273;SDS011;60208;48.692;8.948;2023-11-19T08:22:55;1.00;;;0.70;;
72273;SDS011;60208;48.692;8.948;2023-11-19T08:25:21;0.88;;;0.60;;
72273;SDS011;60208;48.692;8.948;2023-11-19T08:27:46;1.85;;;0.90;;
72273;SDS011;60208;48.692;8.948;2023-11-19T08:30:12;0.65;;;0.65;;
72273;SDS011;60208;48.692;8.948;2023-11-19T08:32:37;0.90;;;0.60;;
72273;SDS011;60208;48.692;8.948;2023-11-19T08:35:03;0.60;;;0.60;;
72273;SDS011;60208;48.692;8.948;2023-11-19T08:37:28;2.45;;;0.80;;
72273;SDS011;60208;48.692;8.948;2023-11-19T08:39:54;1.25;;;0.93;;
72273;SDS011;60208;48.692;8.948;2023-11-19T08:42:19;1.35;;;0.70;;
72273;SDS011;60208;48.692;8.948;2023-11-19T08:44:51;0.50;;;0.50;;
72273;SDS011;60208;48.692;8.948;2023-11-19T08:47:19;0.82;;;0.73;;
72273;SDS011;60208;48.692;8.948;2023-11-19T08:49:45;1.17;;;0.60;;
72273;SDS011;60208;48.692;8.948;2023-11-19T08:52:11;0.93;;;0.60;;
72273;SDS011;60208;48.692;8.948;2023-11-19T08:54:36;1.08;;;0.68;;
72273;SDS011;60208;48.692;8.948;2023-11-19T08:57:02;1.65;;;0.60;;
72273;SDS011;60208;48.692;8.948;2023-11-19T08:59:28;0.77;;;0.50;;
72273;SDS011;60208;48.692;8.948;2023-11-19T09:01:54;0.75;;;0.50;;
72273;SDS011;60208;48.692;8.948;2023-11-19T09:04:20;0.60;;;0.60;;
72273;SDS011;60208;48.692;8.948;2023-11-19T09:06:47;1.52;;;0.85;;
72273;SDS011;60208;48.692;8.948;2023-11-19T09:09:13;0.93;;;0.70;;
72273;SDS011;60208;48.692;8.948;2023-11-19T09:11:39;1.52;;;0.80;;
72273;SDS011;60208;48.692;8.948;2023-11-19T09:14:04;0.75;;;0.75;;
72273;SDS011;60208;48.692;8.948;2023-11-19T09:16:30;0.98;;;0.70;;
72273;SDS011;60208;48.692;8.948;2023-11-19T09:18:55;0.70;;;0.70;;
72273;SDS011;60208;48.692;8.948;2023-11-19T09:21:20;1.15;;;0.80;;
72273;SDS011;60208;48.692;8.948;2023-11-19T09:23:46;1.13;;;0.70;;
72273;SDS011;60208;48.692;8.948;2023-11-19T09:26:13;1.17;;;0.73;;
72273;SDS011;60208;48.692;8.948;2023-11-19T09:28:38;0.70;;;0.65;;
72273;SDS011;60208;48.692;8.948;2023-11-19T09:31:12;4.22;;;0.80;;
72273;SDS011;60208;48.692;8.948;2023-11-19T09:33:38;1.20;;;0.52;;
72273;SDS011;60208;48.692;8.948;2023-11-19T09:36:03;1.60;;;0.50;;
72273;SDS011;60208;48.692;8.948;2023-11-19T09:38:29;0.95;;;0.60;;
72273;SDS011;60208;48.692;8.948;2023-11-19T09:40:54;1.10;;;0.40;;
72273;SDS011;60208;48.692;8.948;2023-11-19T09:43:22;1.20;;;0.50;;
72273;SDS011;60208;48.692;8.948;2023-11-19T09:45:48;0.95;;;0.80;;
72273;SDS011;60208;48.692;8.948;2023-11-19T09:48:18;0.77;;;0.60;;
72273;SDS011;60208;48.692;8.948;2023-11-19T09:50:45;0.80;;;0.50;;
72273;SDS011;60208;48.692;8.948;2023-11-19T09:53:12;1.48;;;0.50;;
72273;SDS011;60208;48.692;8.948;2023-11-19T09:55:37;1.20;;;0.60;;
72273;SDS011;60208;48.692;8.948;2023-11-19T09:58:03;2.47;;;0.50;;
72273;SDS011;60208;48.692;8.948;2023-11-19T10:00:28;1.80;;;0.60;;
72273;SDS011;60208;48.692;8.948;2023-11-19T10:02:55;0.77;;;0.50;;
72273;SDS011;60208;48.692;8.948;2023-11-19T10:05:22;0.57;;;0.35;;
72273;SDS011;60208;48.692;8.948;2023-11-19T10:07:49;1.65;;;0.50;;
72273;SDS011;60208;48.692;8.948;2023-11-19T10:10:14;0.60;;;0.60;;
72273;SDS011;60208;48.692;8.948;2023-11-19T10:12:43;0.50;;;0.50;;
72273;SDS011;60208;48.692;8.948;2023-11-19T10:15:11;0.82;;;0.50;;
72273;SDS011;60208;48.692;8.948;2023-11-19T10:17:44;0.57;;;0.40;;
72273;SDS011;60208;48.692;8.948;2023-11-19T10:20:10;0.50;;;0.50;;
72273;SDS011;60208;48.692;8.948;2023-11-19T10:22:38;1.00;;;0.38;;
72273;SDS011;60208;48.692;8.948;2023-11-19T10:25:04;0.93;;;0.50;;
72273;SDS011;60208;48.692;8.948;2023-11-19T10:27:30;1.50;;;0.70;;
72273;SDS011;60208;48.692;8.948;2023-11-19T10:29:59;0.88;;;0.40;;
72273;SDS011;60208;48.692;8.948;2023-11-19T10:32:24;0.47;;;0.30;;
72273;SDS011;60208;48.692;8.948;2023-11-19T10:34:50;0.38;;;0.20;;
72273;SDS011;60208;48.692;8.948;2023-11-19T10:37:28;0.30;;;0.20;;
72273;SDS011;60208;48.692;8.948;2023-11-19T10:39:57;0.80;;;0.40;;
72273;SDS011;60208;48.692;8.948;2023-11-19T10:42:23;0.20;;;0.20;;
72273;SDS011;60208;48.692;8.948;2023-11-19T10:44:48;0.90;;;0.20;;
72273;SDS011;60208;48.692;8.948;2023-11-19T10:47:14;0.40;;;0.40;;
72273;SDS011;60208;48.692;8.948;2023-11-19T10:49:42;0.63;;;0.40;;
72273;SDS011;60208;48.692;8.948;2023-11-19T10:52:08;0.85;;;0.40;;
72273;SDS011;60208;48.692;8.948;2023-11-19T10:54:34;1.48;;;0.50;;
72273;SDS011;60208;48.692;8.948;2023-11-19T10:57:00;1.70;;;0.60;;
72273;SDS011;60208;48.692;8.948;2023-11-19T10:59:30;1.20;;;0.30;;
72273;SDS011;60208;48.692;8.948;2023-11-19T11:01:57;1.35;;;0.50;;
72273;SDS011;60208;48.692;8.948;2023-11-19T11:04:23;2.20;;;0.52;;
72273;SDS011;60208;48.692;8.948;2023-11-19T11:06:50;1.92;;;0.35;;
72273;SDS011;60208;48.692;8.948;2023-11-19T11:09:16;0.77;;;0.40;;
72273;SDS011;60208;48.692;8.948;2023-11-19T11:11:44;1.80;;;0.70;;
72273;SDS011;60208;48.692;8.948;2023-11-19T11:14:12;1.77;;;0.98;;
72273;SDS011;60208;48.692;8.948;2023-11-19T11:16:42;1.90;;;0.70;;
72273;SDS011;60208;48.692;8.948;2023-11-19T11:19:09;2.65;;;0.80;;
72273;SDS011;60208;48.692;8.948;2023-11-19T11:21:35;1.63;;;0.70;;
72273;SDS011;60208;48.692;8.948;2023-11-19T11:32:27;2.35;;;0.65;;
72273;SDS011;60208;48.692;8.948;2023-11-19T11:39:51;0.85;;;0.50;;
72273;SDS011;60208;48.692;8.948;2023-11-19T11:57:53;0.70;;;0.40;;
72273;SDS011;60208;48.692;8.948;2023-11-19T12:03:06;1.65;;;0.30;;
72273;SDS011;60208;48.692;8.948;2023-11-19T12:05:33;0.98;;;0.40;;
72273;SDS011;60208;48.692;8.948;2023-11-19T12:08:06;1.67;;;0.40;;
72273;SDS011;60208;48.692;8.948;2023-11-19T12:10:36;1.15;;;0.60;;
72273;SDS011;60208;48.692;8.948;2023-11-19T12:13:04;1.77;;;0.50;;
72273;SDS011;60208;48.692;8.948;2023-11-19T12:15:32;1.80;;;0.60;;
72273;SDS011;60208;48.692;8.948;2023-11-19T12:17:57;2.40;;;0.50;;
72273;SDS011;60208;48.692;8.948;2023-11-19T12:20:23;0.93;;;0.50;;
72273;SDS011;60208;48.692;8.948;2023-11-19T12:22:49;1.30;;;0.50;;
72273;SDS011;60208;48.692;8.948;2023-11-19T12:25:16;1.83;;;0.40;;
72273;SDS011;60208;48.692;8.948;2023-11-19T12:27:43;1.85;;;0.85;;
72273;SDS011;60208;48.692;8.948;2023-11-19T12:30:10;0.55;;;0.30;;
72273;SDS011;60208;48.692;8.948;2023-11-19T12:32:42;2.25;;;0.50;;
72273;SDS011;60208;48.692;8.948;2023-11-19T12:35:09;11.27;;;6.00;;
72273;SDS011;60208;48.692;8.948;2023-11-19T12:37:44;1.77;;;0.70;;
72273;SDS011;60208;48.692;8.948;2023-11-19T12:40:13;0.70;;;0.50;;
72273;SDS011;60208;48.692;8.948;2023-11-19T12:42:43;3.03;;;0.50;;
72273;SDS011;60208;48.692;8.948;2023-11-19T12:45:13;1.00;;;0.55;;
72273;SDS011;60208;48.692;8.948;2023-11-19T12:47:39;0.90;;;0.40;;
72273;SDS011;60208;48.692;8.948;2023-11-19T12:50:05;0.80;;;0.45;;
72273;SDS011;60208;48.692;8.948;2023-11-19T12:52:33;1.48;;;0.60;;
72273;SDS011;60208;48.692;8.948;2023-11-19T12:54:58;0.55;;;0.40;;
72273;SDS011;60208;48.692;8.948;2023-11-19T12:57:39;0.77;;;0.47;;
72273;SDS011;60208;48.692;8.948;2023-11-19T13:00:06;1.83;;;0.40;;
72273;SDS011;60208;48.692;8.948;2023-11-19T13:02:44;1.35;;;0.40;;
72273;SDS011;60208;48.692;8.948;2023-11-19T13:05:21;1.27;;;0.50;;
72273;SDS011;60208;48.692;8.948;2023-11-19T13:07:46;0.65;;;0.40;;
72273;SDS011;60208;48.692;8.948;2023-11-19T13:10:12;1.33;;;0.52;;
72273;SDS011;60208;48.692;8.948;2023-11-19T13:12:38;0.80;;;0.40;;
72273;SDS011;60208;48.692;8.948;2023-11-19T13:15:04;0.95;;;0.30;;
72273;SDS011;60208;48.692;8.948;2023-11-19T13:17:30;0.70;;;0.60;;
72273;SDS011;60208;48.692;8.948;2023-11-19T13:19:55;1.52;;;0.50;;
72273;SDS011;60208;48.692;8.948;2023-11-19T13:22:22;0.75;;;0.40;;
72273;SDS011;60208;48.692;8.948;2023-11-19T13:24:47;1.17;;;0.60;;
72273;SDS011;60208;48.692;8.948;2023-11-19T13:27:13;2.15;;;1.50;;
72273;SDS011;60208;48.692;8.948;2023-11-19T13:29:39;1.63;;;0.93;;
72273;SDS011;60208;48.692;8.948;2023-11-19T13:32:04;1.25;;;0.40;;
72273;SDS011;60208;48.692;8.948;2023-11-19T13:34:30;0.80;;;0.40;;
72273;SDS011;60208;48.692;8.948;2023-11-19T13:36:56;1.08;;;0.40;;
72273;SDS011;60208;48.692;8.948;2023-11-19T13:39:21;1.13;;;0.40;;
72273;SDS011;60208;48.692;8.948;2023-11-19T13:41:48;1.05;;;0.40;;
72273;SDS011;60208;48.692;8.948;2023-11-19T13:44:15;1.00;;;0.50;;
72273;SDS011;60208;48.692;8.948;2023-11-19T13:46:44;1.23;;;0.50;;
72273;SDS011;60208;48.692;8.948;2023-11-19T13:49:09;0.63;;;0.35;;
72273;SDS011;60208;48.692;8.948;2023-11-19T13:51:35;2.28;;;0.52;;
72273;SDS011;60208;48.692;8.948;2023-11-19T13:54:00;1.63;;;0.50;;
72273;SDS011;60208;48.692;8.948;2023-11-19T13:56:26;1.02;;;0.55;;
72273;SDS011;60208;48.692;8.948;2023-11-19T13:58:51;0.75;;;0.50;;
72273;SDS011;60208;48.692;8.948;2023-11-19T14:01:18;1.77;;;0.50;;
72273;SDS011;60208;48.692;8.948;2023-11-19T14:03:43;0.68;;;0.40;;
72273;SDS011;60208;48.692;8.948;2023-11-19T14:06:09;0.88;;;0.47;;
72273;SDS011;60208;48.692;8.948;2023-11-19T14:08:34;0.75;;;0.40;;
72273;SDS011;60208;48.692;8.948;2023-11-19T14:11:01;1.05;;;0.50;;
72273;SDS011;60208;48.692;8.948;2023-11-19T14:13:26;1.95;;;0.40;;
72273;SDS011;60208;48.692;8.948;2023-11-19T14:15:52;1.48;;;0.50;;
72273;SDS011;60208;48.692;8.948;2023-11-19T14:18:17;1.13;;;0.77;;
72273;SDS011;60208;48.692;8.948;2023-11-19T14:20:43;1.67;;;0.50;;
72273;SDS011;60208;48.692;8.948;2023-11-19T14:23:11;1.45;;;0.60;;
72273;SDS011;60208;48.692;8.948;2023-11-19T14:25:36;1.48;;;0.50;;
72273;SDS011;60208;48.692;8.948;2023-11-19T14:28:02;1.35;;;0.70;;
72273;SDS011;60208;48.692;8.948;2023-11-19T14:30:27;0.50;;;0.40;;
72273;SDS011;60208;48.692;8.948;2023-11-19T14:32:53;2.38;;;0.60;;
72273;SDS011;60208;48.692;8.948;2023-11-19T14:35:19;1.15;;;0.70;;
72273;SDS011;60208;48.692;8.948;2023-11-19T14:37:45;1.02;;;0.35;;
72273;SDS011;60208;48.692;8.948;2023-11-19T14:40:11;0.73;;;0.50;;
72273;SDS011;60208;48.692;8.948;2023-11-19T14:42:36;1.20;;;0.55;;
72273;SDS011;60208;48.692;8.948;2023-11-19T14:45:04;3.17;;;0.50;;
72273;SDS011;60208;48.692;8.948;2023-11-19T14:47:30;0.70;;;0.40;;
72273;SDS011;60208;48.692;8.948;2023-11-19T14:49:55;0.50;;;0.40;;
72273;SDS011;60208;48.692;8.948;2023-11-19T14:52:21;1.25;;;0.40;;
72273;SDS011;60208;48.692;8.948;2023-11-19T14:54:46;0.90;;;0.40;;
72273;SDS011;60208;48.692;8.948;2023-11-19T14:57:12;0.93;;;0.52;;
72273;SDS011;60208;48.692;8.948;2023-11-19T14:59:38;0.85;;;0.30;;
72273;SDS011;60208;48.692;8.948;2023-11-19T15:02:04;0.95;;;0.50;;
72273;SDS011;60208;48.692;8.948;2023-11-19T15:04:30;0.88;;;0.55;;
72273;SDS011;60208;48.692;8.948;2023-11-19T15:06:56;0.80;;;0.70;;
72273;SDS011;60208;48.692;8.948;2023-11-19T15:09:22;0.80;;;0.70;;
72273;SDS011;60208;48.692;8.948;2023-11-19T15:11:48;0.70;;;0.60;;
72273;SDS011;60208;48.692;8.948;2023-11-19T15:14:13;2.03;;;1.63;;
72273;SDS011;60208;48.692;8.948;2023-11-19T15:16:44;0.70;;;0.60;;